Time;durP1;ratioP1;P1;durP2;ratioP2;P2;SDS_P1;SDS_P2;PMS_P1;PMS_P2;Temp;Humidity;BMP_temperature;BMP_pressure;BME280_temperature;BME280_humidity;BME280_pressure;Samples;Min_cycle;Max_cycle;Signal;HPM_P1;HPM_P2
2021/11/21 00:00:16;;;;;;;21.37;10.83;;;;;;;17.69;63.14;100213.47;4974552;28;20723;-75
2021/11/21 00:02:41;;;;;;;21.90;11.80;;;;;;;17.33;63.33;100209.56;4973330;28;20241;-74
2021/11/21 00:05:07;;;;;;;17.30;10.07;;;;;;;16.78;65.64;100228.00;4972688;28;20260;-74
2021/11/21 00:07:32;;;;;;;18.90;10.33;;;;;;;17.26;64.12;100206.59;4956417;28;20201;-74
2021/11/21 00:09:59;;;;;;;22.10;10.20;;;;;;;17.05;64.62;100198.56;4974054;28;20196;-74
2021/11/21 00:12:24;;;;;;;18.20;9.67;;;;;;;17.25;64.30;100199.50;4973612;28;20175;-73
2021/11/21 00:14:49;;;;;;;15.00;9.03;;;;;;;16.77;65.18;100202.91;4972811;28;20548;-73
2021/11/21 00:17:15;;;;;;;15.70;9.37;;;;;;;16.51;65.85;100199.75;4972782;28;20177;-73
2021/11/21 00:19:41;;;;;;;15.10;9.30;;;;;;;16.96;64.99;100199.41;4972139;28;20206;-73
2021/11/21 00:22:13;;;;;;;16.80;9.30;;;;;;;17.49;63.95;100202.66;4956514;28;20186;-73
2021/11/21 00:24:39;;;;;;;17.93;9.37;;;;;;;17.69;63.49;100200.84;4956853;28;20533;-74
2021/11/21 00:27:05;;;;;;;20.23;10.27;;;;;;;17.18;64.23;100201.03;4956247;28;20205;-72
2021/11/21 00:29:31;;;;;;;16.27;9.57;;;;;;;16.98;64.71;100192.03;4956279;28;20623;-73
2021/11/21 00:31:56;;;;;;;16.17;9.57;;;;;;;17.76;63.38;100199.28;4958047;28;20177;-75
2021/11/21 00:34:22;;;;;;;18.43;9.50;;;;;;;17.74;63.14;100190.47;4972235;28;20544;-73
2021/11/21 00:36:47;;;;;;;18.73;9.97;;;;;;;17.24;64.29;100195.09;4972394;28;20188;-73
2021/11/21 00:39:12;;;;;;;15.43;8.97;;;;;;;17.38;63.94;100196.50;4955737;28;20195;-73
2021/11/21 00:41:38;;;;;;;14.67;8.73;;;;;;;16.92;65.08;100189.91;4973769;28;20549;-73
2021/11/21 00:44:03;;;;;;;13.67;8.83;;;;;;;17.24;63.83;100188.84;4972173;28;20217;-73
2021/11/21 00:46:28;;;;;;;15.80;8.93;;;;;;;17.23;64.34;100189.84;4971803;28;20336;-73
2021/11/21 00:48:54;;;;;;;15.07;8.77;;;;;;;17.50;63.20;100196.28;4971872;28;20682;-73
2021/11/21 00:51:20;;;;;;;16.40;8.63;;;;;;;17.33;64.69;100186.16;4955639;28;20178;-74
2021/11/21 00:53:51;;;;;;;13.37;8.10;;;;;;;17.14;64.45;100189.69;4972274;28;20273;-72
2021/11/21 00:56:16;;;;;;;15.10;8.43;;;;;;;16.82;64.66;100191.72;4971860;28;20151;-73
2021/11/21 00:58:41;;;;;;;12.83;7.70;;;;;;;16.94;64.80;100160.97;4971454;28;20203;-73
2021/11/21 01:01:07;;;;;;;13.93;9.00;;;;;;;17.11;64.14;100165.69;4971499;28;20205;-73
2021/11/21 01:03:33;;;;;;;13.63;9.20;;;;;;;17.52;64.08;100166.44;4971038;28;20200;-73
2021/11/21 01:05:58;;;;;;;18.47;8.73;;;;;;;17.73;63.07;100169.03;4954914;28;20572;-74
2021/11/21 01:08:25;;;;;;;14.23;8.47;;;;;;;17.76;62.99;100158.78;4954943;28;20192;-73
2021/11/21 01:11:00;;;;;;;15.80;10.33;;;;;;;18.23;62.76;100166.97;4971005;28;20196;-73
2021/11/21 01:13:26;;;;;;;16.07;9.40;;;;;;;17.86;63.34;100166.03;4955929;28;20226;-73
2021/11/21 01:15:51;;;;;;;18.33;9.80;;;;;;;17.68;63.05;100160.50;4973231;28;20181;-73
2021/11/21 01:18:17;;;;;;;17.47;9.80;;;;;;;17.25;63.82;100166.28;4972721;28;20177;-74
2021/11/21 01:20:43;;;;;;;20.40;10.57;;;;;;;16.81;64.84;100165.75;4970968;28;20598;-73
2021/11/21 01:23:12;;;;;;;17.10;10.50;;;;;;;17.57;64.14;100166.88;4970990;28;20173;-72
2021/11/21 01:25:41;;;;;;;17.20;10.23;;;;;;;17.48;63.55;100157.78;4955151;28;20236;-72
2021/11/21 01:28:07;;;;;;;16.33;10.10;;;;;;;17.66;62.89;100159.75;4955430;28;20223;-73
2021/11/21 01:30:33;;;;;;;16.63;9.80;;;;;;;17.43;63.47;100151.09;4954788;28;20213;-72
2021/11/21 01:32:59;;;;;;;16.13;8.57;;;;;;;17.80;62.65;100141.31;4971511;28;20168;-73
2021/11/21 01:35:25;;;;;;;16.60;9.77;;;;;;;17.48;63.40;100140.75;4971481;28;20178;-72
2021/11/21 01:37:51;;;;;;;16.70;8.50;;;;;;;17.06;63.40;100137.41;4971256;28;20182;-72
2021/11/21 01:40:18;;;;;;;13.40;8.30;;;;;;;17.28;63.37;100139.88;4971243;28;20207;-73
2021/11/21 01:42:44;;;;;;;12.93;7.53;;;;;;;17.23;63.73;100142.16;4971420;28;20181;-72
2021/11/21 01:45:10;;;;;;;10.97;7.17;;;;;;;17.73;62.22;100140.19;4970789;28;20181;-72
2021/11/21 01:47:37;;;;;;;11.67;6.67;;;;;;;17.61;63.02;100119.72;4970578;28;20187;-72
2021/11/21 01:50:05;;;;;;;10.33;7.30;;;;;;;16.91;63.39;100109.19;4970617;28;20201;-73
2021/11/21 01:52:31;;;;;;;10.97;6.07;;;;;;;17.20;63.15;100101.97;4970633;28;20187;-73
2021/11/21 01:54:56;;;;;;;8.80;5.90;;;;;;;16.76;63.14;100095.25;4954526;28;20193;-73
2021/11/21 01:57:21;;;;;;;7.10;4.87;;;;;;;16.42;63.62;100100.94;4970506;28;20559;-72
2021/11/21 01:59:47;;;;;;;7.07;4.53;;;;;;;16.87;63.08;100087.03;4970388;28;20208;-72
2021/11/21 02:02:12;;;;;;;8.27;4.90;;;;;;;17.29;61.88;100086.78;4970380;28;20183;-73
2021/11/21 02:04:38;;;;;;;7.73;4.97;;;;;;;17.78;60.76;100077.66;4970840;28;20174;-72
2021/11/21 02:07:03;;;;;;;7.10;4.43;;;;;;;16.77;62.69;100060.09;4972047;28;20797;-73
2021/11/21 02:09:28;;;;;;;5.60;3.70;;;;;;;17.05;62.01;100085.34;4970628;28;20205;-71
2021/11/21 02:11:54;;;;;;;5.57;4.27;;;;;;;17.18;61.35;100071.63;4970184;28;20698;-72
2021/11/21 02:14:19;;;;;;;7.20;4.27;;;;;;;17.76;60.06;100068.88;4970350;28;20666;-71
2021/11/21 02:16:46;;;;;;;4.40;3.83;;;;;;;17.80;60.00;100071.13;4954354;28;20178;-73
2021/11/21 02:19:14;;;;;;;5.80;3.77;;;;;;;17.88;59.74;100062.31;4970818;28;20259;-72
2021/11/21 02:21:39;;;;;;;5.33;3.60;;;;;;;17.37;60.76;100057.25;4998142;23;20247;-74
2021/11/21 02:24:05;;;;;;;5.10;3.53;;;;;;;18.17;59.02;100051.41;5006258;28;20240;-73
2021/11/21 02:26:30;;;;;;;4.53;3.27;;;;;;;18.00;58.49;100039.53;5006565;28;20737;-72
2021/11/21 02:28:56;;;;;;;5.70;3.60;;;;;;;17.42;60.08;100046.88;4990838;28;20260;-72
2021/11/21 02:31:23;;;;;;;4.53;3.23;;;;;;;18.12;58.97;100026.69;4991210;28;20296;-73
2021/11/21 02:33:54;;;;;;;4.30;3.10;;;;;;;17.86;59.31;100028.38;4990189;28;20189;-73
2021/11/21 02:36:19;;;;;;;4.17;3.00;;;;;;;17.55;59.86;100031.25;4990287;28;20166;-72
2021/11/21 02:38:45;;;;;;;3.77;2.47;;;;;;;17.50;59.55;100030.84;4974598;28;20180;-72
2021/11/21 02:41:11;;;;;;;5.20;2.83;;;;;;;17.10;61.12;100026.50;5075404;28;20613;-74
2021/11/21 02:43:38;;;;;;;3.73;2.90;;;;;;;17.63;59.63;100014.34;4990432;28;20215;-74
2021/11/21 02:46:04;;;;;;;3.80;2.67;;;;;;;17.56;59.43;100029.41;4990736;28;20192;-72
2021/11/21 02:48:31;;;;;;;3.40;2.67;;;;;;;17.57;58.63;100023.03;4997458;28;20689;-72
2021/11/21 02:50:57;;;;;;;4.20;2.60;;;;;;;17.54;59.39;100010.69;5010001;28;20194;-72
2021/11/21 02:53:26;;;;;;;3.13;2.23;;;;;;;17.61;59.63;100017.19;5011183;28;20551;-72
2021/11/21 02:55:56;;;;;;;6.23;2.53;;;;;;;17.96;58.43;100005.75;5008581;28;20639;-72
2021/11/21 02:58:23;;;;;;;3.77;2.40;;;;;;;17.65;58.63;99998.84;5007805;28;20192;-72
2021/11/21 03:00:49;;;;;;;4.23;2.47;;;;;;;17.50;59.38;99998.47;5005955;28;20200;-72
2021/11/21 03:03:14;;;;;;;2.57;2.37;;;;;;;17.33;58.83;100013.53;5007792;28;20187;-72
2021/11/21 03:05:40;;;;;;;3.43;2.20;;;;;;;17.04;59.53;100001.91;4995506;28;20201;-72
2021/11/21 03:08:05;;;;;;;2.53;2.13;;;;;;;17.79;58.25;99999.25;5006507;28;20234;-73
2021/11/21 03:10:31;;;;;;;6.07;2.27;;;;;;;17.34;58.92;100007.16;4990842;28;20216;-73
2021/11/21 03:12:59;;;;;;;8.30;2.20;;;;;;;17.55;59.00;99998.88;4991483;28;20539;-73
2021/11/21 03:15:24;;;;;;;4.07;2.27;;;;;;;17.32;59.00;100000.19;4994686;28;20716;-72
2021/11/21 03:17:50;;;;;;;5.80;1.80;;;;;;;17.65;58.05;99991.59;4994080;28;20177;-73
2021/11/21 03:20:19;;;;;;;2.57;2.00;;;;;;;17.80;58.27;99992.00;4992404;28;20678;-72
2021/11/21 03:22:44;;;;;;;4.70;2.40;;;;;;;16.92;59.72;100001.22;4994085;28;20180;-73
2021/11/21 03:25:10;;;;;;;4.40;1.87;;;;;;;17.61;58.33;99987.50;5008729;28;20227;-73
2021/11/21 03:27:36;;;;;;;3.27;1.90;;;;;;;16.94;59.77;99995.69;4992427;28;20208;-73
2021/11/21 03:30:04;;;;;;;6.83;2.20;;;;;;;17.44;59.21;99985.53;4992317;28;20292;-73
2021/11/21 03:32:30;;;;;;;1.80;1.60;;;;;;;16.75;60.09;99975.84;4992347;28;20188;-72
2021/11/21 03:34:55;;;;;;;7.63;2.10;;;;;;;17.63;58.09;99973.88;4976157;28;20547;-72
2021/11/21 03:37:20;;;;;;;2.67;1.57;;;;;;;16.70;60.44;99971.84;5008930;28;20189;-72
2021/11/21 03:39:45;;;;;;;3.30;1.90;;;;;;;16.80;59.17;99972.72;5008377;28;20216;-72
2021/11/21 03:42:11;;;;;;;3.10;1.67;;;;;;;17.11;59.22;99971.56;4993318;28;20191;-75
2021/11/21 03:44:36;;;;;;;3.83;1.70;;;;;;;17.01;59.45;99953.69;4993568;28;20203;-73
2021/11/21 03:47:01;;;;;;;3.20;1.80;;;;;;;17.04;58.96;99956.94;4993615;28;20208;-73
2021/11/21 03:49:27;;;;;;;3.30;1.80;;;;;;;17.65;57.58;99964.63;5008462;28;20661;-72
2021/11/21 03:51:52;;;;;;;2.50;1.63;;;;;;;17.43;58.01;99956.88;5008329;28;20181;-72
2021/11/21 03:54:17;;;;;;;3.17;1.80;;;;;;;17.53;57.61;99982.00;5009053;28;20527;-72
2021/11/21 03:56:43;;;;;;;3.77;1.80;;;;;;;17.37;58.65;99962.84;4993302;28;20177;-72
2021/11/21 03:59:08;;;;;;;3.53;2.07;;;;;;;17.43;58.51;99963.13;5008529;28;20551;-72
2021/11/21 04:01:34;;;;;;;2.67;1.63;;;;;;;17.02;58.60;99958.94;5008228;28;20563;-72
2021/11/21 04:03:59;;;;;;;2.70;1.70;;;;;;;17.01;58.85;99943.75;4993071;28;20231;-73
2021/11/21 04:06:25;;;;;;;4.27;1.70;;;;;;;17.46;58.21;99943.94;4992883;28;20212;-72
2021/11/21 04:08:50;;;;;;;4.20;1.93;;;;;;;17.12;58.21;99946.31;5008638;28;20663;-72
2021/11/21 04:11:15;;;;;;;2.33;1.50;;;;;;;17.06;58.81;99964.88;5008087;28;20232;-72
2021/11/21 04:13:41;;;;;;;2.60;1.80;;;;;;;17.62;57.58;99950.59;5008432;28;20208;-72
2021/11/21 04:16:06;;;;;;;2.97;1.90;;;;;;;17.34;58.10;99946.97;4992875;28;20657;-73
2021/11/21 04:18:33;;;;;;;3.53;1.60;;;;;;;17.05;58.75;99939.78;5008074;28;20226;-73
2021/11/21 04:20:58;;;;;;;3.00;1.63;;;;;;;16.95;59.17;99960.50;5007775;28;20239;-73
2021/11/21 04:23:28;;;;;;;3.87;2.03;;;;;;;17.19;58.76;99942.03;5007827;28;20185;-73
2021/11/21 04:25:54;;;;;;;4.73;2.20;;;;;;;16.44;60.33;99961.59;4991589;28;20244;-73
2021/11/21 04:28:19;;;;;;;2.93;2.10;;;;;;;17.00;59.22;99939.34;5008472;28;20197;-74
2021/11/21 04:30:44;;;;;;;3.03;1.80;;;;;;;16.76;60.05;99947.91;4993027;28;20204;-73
2021/11/21 04:33:10;;;;;;;3.70;2.37;;;;;;;16.32;61.21;99930.38;4992683;28;20179;-73
2021/11/21 04:35:35;;;;;;;4.10;2.43;;;;;;;16.47;61.65;99941.59;4991558;28;20210;-73
2021/11/21 04:38:00;;;;;;;4.53;2.63;;;;;;;16.30;61.75;99937.75;4992763;28;20271;-73
2021/11/21 04:40:26;;;;;;;4.43;2.83;;;;;;;16.27;62.46;99943.41;4993380;28;20208;-72
2021/11/21 04:42:51;;;;;;;4.23;3.20;;;;;;;16.52;62.56;99942.88;5007467;28;20252;-72
2021/11/21 04:45:17;;;;;;;4.60;2.80;;;;;;;16.62;61.86;99940.19;4991018;28;20229;-72
2021/11/21 04:47:42;;;;;;;5.43;2.70;;;;;;;16.38;62.79;99951.38;4990971;28;20184;-73
2021/11/21 04:50:10;;;;;;;3.00;2.60;;;;;;;16.74;62.30;99957.97;4992777;28;20594;-73
2021/11/21 04:52:36;;;;;;;6.13;3.10;;;;;;;16.81;61.27;99937.53;4992619;28;20585;-73
2021/11/21 04:55:01;;;;;;;3.70;2.90;;;;;;;16.72;61.77;99926.75;4991634;28;20183;-73
2021/11/21 04:57:26;;;;;;;4.33;3.10;;;;;;;16.71;61.79;99930.44;4975530;28;20180;-73
2021/11/21 04:59:52;;;;;;;5.83;2.80;;;;;;;16.76;61.99;99928.19;4990847;28;20227;-72
2021/11/21 05:02:17;;;;;;;5.60;3.20;;;;;;;16.77;61.93;99927.19;4991940;28;20341;-73
2021/11/21 05:04:43;;;;;;;4.43;2.97;;;;;;;17.11;61.40;99927.59;5007198;28;20183;-73
2021/11/21 05:07:08;;;;;;;7.07;3.53;;;;;;;16.99;61.45;99921.47;4990358;28;20195;-73
2021/11/21 05:09:33;;;;;;;3.40;3.10;;;;;;;17.13;60.97;99926.44;5006879;28;20177;-73
2021/11/21 05:11:59;;;;;;;4.57;2.93;;;;;;;16.54;62.25;99919.34;5075991;28;20184;-72
2021/11/21 05:14:24;;;;;;;5.07;3.40;;;;;;;16.63;62.51;99928.41;5006984;28;20525;-73
2021/11/21 05:16:50;;;;;;;7.93;3.33;;;;;;;15.97;64.11;99921.94;5006808;28;20211;-73
2021/11/21 05:19:15;;;;;;;4.80;3.27;;;;;;;16.60;62.69;99922.47;4991637;28;20219;-73
2021/11/21 05:21:40;;;;;;;5.33;3.27;;;;;;;16.41;63.68;99926.00;5006508;28;20210;-72
2021/11/21 05:24:06;;;;;;;5.23;3.83;;;;;;;17.03;62.26;99935.53;4990482;28;20270;-73
2021/11/21 05:26:32;;;;;;;7.27;4.00;;;;;;;16.73;63.04;99933.88;4974179;28;20200;-73
2021/11/21 05:28:57;;;;;;;5.00;3.97;;;;;;;16.07;64.81;99930.91;4990654;28;20596;-73
2021/11/21 05:31:24;;;;;;;4.37;3.60;;;;;;;16.42;63.94;99947.41;5006559;28;20202;-72
2021/11/21 05:33:49;;;;;;;5.10;4.00;;;;;;;16.47;63.75;99928.13;4990254;28;20182;-73
2021/11/21 05:36:15;;;;;;;3.80;3.33;;;;;;;16.91;62.81;99942.91;4989999;28;20181;-72
2021/11/21 05:38:40;;;;;;;9.03;4.20;;;;;;;16.91;62.72;99932.13;4990291;28;20663;-72
2021/11/21 05:41:06;;;;;;;6.57;3.97;;;;;;;17.27;62.42;99932.38;4989981;28;20214;-72
2021/11/21 05:43:31;;;;;;;4.83;4.23;;;;;;;16.81;62.89;99934.00;4991627;28;20184;-72
2021/11/21 05:45:57;;;;;;;4.63;4.00;;;;;;;16.75;63.34;99931.88;4991059;28;20548;-72
2021/11/21 05:48:22;;;;;;;4.83;4.23;;;;;;;17.18;62.69;99932.25;4989816;28;20178;-72
2021/11/21 05:50:48;;;;;;;6.77;3.53;;;;;;;16.78;63.62;99942.38;4989530;28;20199;-72
2021/11/21 05:53:13;;;;;;;8.23;4.20;;;;;;;16.73;63.66;99923.09;4991438;28;20178;-72
2021/11/21 05:55:38;;;;;;;4.13;3.60;;;;;;;17.16;63.14;99926.16;5006310;28;20180;-71
2021/11/21 05:58:04;;;;;;;5.87;4.03;;;;;;;17.26;62.45;99928.81;5006236;28;20679;-71
2021/11/21 06:00:29;;;;;;;4.30;3.87;;;;;;;17.06;63.29;99919.91;5006369;28;20245;-72
2021/11/21 06:02:55;;;;;;;6.77;4.27;;;;;;;16.77;63.74;99921.81;4991083;28;20184;-72
2021/11/21 06:05:21;;;;;;;5.47;3.57;;;;;;;16.98;63.27;99927.88;4989669;28;20171;-71
2021/11/21 06:07:46;;;;;;;5.97;4.30;;;;;;;16.99;63.48;99916.09;4989505;28;20637;-72
2021/11/21 06:10:12;;;;;;;5.73;3.30;;;;;;;16.90;64.00;99926.91;5006463;28;20197;-72
2021/11/21 06:12:37;;;;;;;6.20;4.00;;;;;;;17.06;63.44;99933.38;4973387;28;20250;-73
2021/11/21 06:15:04;;;;;;;4.57;3.70;;;;;;;17.00;63.70;99949.28;4989643;28;20259;-73
2021/11/21 06:17:29;;;;;;;6.37;4.43;;;;;;;16.64;64.31;99931.97;4973543;28;20210;-72
2021/11/21 06:19:55;;;;;;;5.80;3.80;;;;;;;16.90;63.80;99933.13;5005937;28;20209;-73
2021/11/21 06:22:20;;;;;;;6.23;3.50;;;;;;;16.74;64.00;99922.09;4989286;28;20500;-73
2021/11/21 06:24:46;;;;;;;6.30;3.67;;;;;;;17.31;62.90;99922.97;4989475;28;20183;-73
2021/11/21 06:27:12;;;;;;;4.37;3.67;;;;;;;17.17;63.26;99927.84;4990501;28;20211;-72
2021/11/21 06:29:37;;;;;;;5.37;3.73;;;;;;;17.01;63.59;99932.97;4973203;28;20184;-72
2021/11/21 06:32:03;;;;;;;7.60;3.63;;;;;;;16.90;63.74;99937.69;4989605;28;20174;-72
2021/11/21 06:34:28;;;;;;;8.73;3.67;;;;;;;16.82;63.77;99933.00;4991028;28;20177;-72
2021/11/21 06:36:54;;;;;;;7.27;3.83;;;;;;;16.69;64.25;99935.13;4990513;28;20339;-72
2021/11/21 06:39:19;;;;;;;4.77;3.57;;;;;;;17.31;62.61;99928.38;5005839;28;20186;-74
2021/11/21 06:41:44;;;;;;;3.97;3.23;;;;;;;17.00;63.38;99936.66;5005447;28;20178;-73
2021/11/21 06:44:10;;;;;;;5.07;3.23;;;;;;;16.79;63.81;99944.06;4989011;28;20173;-73
2021/11/21 06:46:36;;;;;;;8.00;3.27;;;;;;;16.95;63.71;99949.72;4990446;28;20233;-73
2021/11/21 06:49:01;;;;;;;4.90;3.57;;;;;;;17.13;63.32;99950.72;4992032;28;20193;-73
2021/11/21 06:51:28;;;;;;;5.03;3.30;;;;;;;17.28;62.79;99943.00;4992710;28;20194;-74
2021/11/21 06:53:54;;;;;;;3.20;2.90;;;;;;;17.01;63.02;99949.16;4993026;28;20634;-73
2021/11/21 06:56:19;;;;;;;4.13;3.20;;;;;;;17.13;63.04;99960.66;4992670;28;20170;-73
2021/11/21 06:58:46;;;;;;;3.77;3.20;;;;;;;17.56;61.88;99951.19;4993728;28;20253;-73
2021/11/21 07:01:11;;;;;;;4.93;2.60;;;;;;;17.48;62.35;99952.75;4992312;28;20204;-73
2021/11/21 07:03:37;;;;;;;3.03;2.73;;;;;;;17.75;60.87;99941.19;4993422;28;20184;-73
2021/11/21 07:06:02;;;;;;;8.53;2.57;;;;;;;17.26;61.63;99958.47;4993379;28;20210;-73
2021/11/21 07:08:28;;;;;;;3.47;2.60;;;;;;;18.09;60.13;99948.69;4993412;28;20180;-73
2021/11/21 07:10:53;;;;;;;3.53;2.80;;;;;;;17.41;61.24;99946.22;5008780;28;20203;-75
2021/11/21 07:13:21;;;;;;;2.73;2.33;;;;;;;17.84;60.32;99934.06;4993486;28;20180;-73
2021/11/21 07:15:47;;;;;;;2.50;2.30;;;;;;;17.27;60.90;99940.47;5008528;28;20587;-73
2021/11/21 07:18:12;;;;;;;2.27;1.80;;;;;;;17.26;61.43;99952.25;4992384;28;20238;-73
2021/11/21 07:20:37;;;;;;;5.97;2.20;;;;;;;17.98;59.66;99944.34;4991898;28;20223;-73
2021/11/21 07:23:02;;;;;;;4.73;2.50;;;;;;;17.42;60.16;99952.47;5077842;28;20188;-73
2021/11/21 07:25:28;;;;;;;2.30;1.77;;;;;;;17.50;60.06;99949.91;5008358;28;20198;-72
2021/11/21 07:27:53;;;;;;;3.33;1.60;;;;;;;17.49;59.75;99953.63;4993134;28;20646;-72
2021/11/21 07:30:21;;;;;;;4.00;1.70;;;;;;;18.32;58.77;99968.03;4992914;28;20284;-73
2021/11/21 07:32:47;;;;;;;2.93;1.70;;;;;;;17.78;59.10;99958.91;4991965;28;20683;-72
2021/11/21 07:35:18;;;;;;;4.37;1.60;;;;;;;17.95;59.12;99960.84;4993221;28;20314;-71
2021/11/21 07:37:43;;;;;;;3.50;1.63;;;;;;;17.98;58.67;99959.69;4991644;28;20218;-72
2021/11/21 07:40:10;;;;;;;2.90;1.20;;;;;;;17.96;58.27;99978.75;5008369;28;20676;-72
2021/11/21 07:42:36;;;;;;;3.67;1.63;;;;;;;18.04;57.79;99967.19;4992959;28;20173;-72
2021/11/21 07:45:03;;;;;;;2.70;1.20;;;;;;;18.55;56.87;99982.81;4992761;28;20177;-71
2021/11/21 07:47:28;;;;;;;3.77;1.30;;;;;;;18.28;57.28;99972.91;4991437;28;20211;-73
2021/11/21 07:49:55;;;;;;;5.30;1.47;;;;;;;18.07;57.26;99973.13;5008195;28;20204;-73
2021/11/21 07:52:21;;;;;;;2.90;1.27;;;;;;;18.65;56.44;99988.19;4991313;28;20570;-73
2021/11/21 07:54:46;;;;;;;6.50;1.40;;;;;;;18.48;56.65;99986.28;4991609;28;20172;-72
2021/11/21 07:57:11;;;;;;;7.23;1.80;;;;;;;18.50;55.73;99989.66;4993820;28;20179;-72
2021/11/21 07:59:37;;;;;;;4.67;1.20;;;;;;;18.61;55.98;99994.88;4993775;28;20209;-72
2021/11/21 08:02:02;;;;;;;3.60;1.00;;;;;;;18.97;54.75;99991.22;5009089;28;20179;-72
2021/11/21 08:04:27;;;;;;;4.23;1.17;;;;;;;18.44;55.55;100000.09;5009103;28;20181;-72
2021/11/21 08:06:53;;;;;;;4.97;1.30;;;;;;;18.30;56.12;99992.50;5008027;28;20252;-72
2021/11/21 08:09:18;;;;;;;5.80;1.30;;;;;;;18.74;55.22;99993.53;5008126;28;20180;-72
2021/11/21 08:11:44;;;;;;;4.87;1.40;;;;;;;18.49;55.56;99996.06;5007697;28;20189;-73
2021/11/21 08:14:09;;;;;;;6.47;1.37;;;;;;;18.62;54.92;100000.16;4992967;28;20178;-72
2021/11/21 08:16:34;;;;;;;5.73;1.40;;;;;;;18.53;55.17;100005.56;5007841;28;20176;-73
2021/11/21 08:19:00;;;;;;;4.27;1.07;;;;;;;18.33;55.63;100008.41;5007677;28;20181;-72
2021/11/21 08:21:25;;;;;;;5.67;1.53;;;;;;;18.79;54.45;100003.03;5019685;23;20229;-70
2021/11/21 08:23:50;;;;;;;3.67;1.23;;;;;;;18.89;54.36;100009.19;4971826;28;20193;-70
2021/11/21 08:26:16;;;;;;;7.27;1.30;;;;;;;18.49;55.19;100007.72;4973174;28;20216;-71
2021/11/21 08:28:41;;;;;;;6.37;1.40;;;;;;;18.83;54.56;100013.38;4971968;28;20206;-70
2021/11/21 08:31:08;;;;;;;6.33;1.43;;;;;;;19.01;54.08;100014.25;4971924;28;20548;-70
2021/11/21 08:33:34;;;;;;;5.93;1.20;;;;;;;19.12;53.84;100015.00;4972982;28;20260;-70
2021/11/21 08:35:59;;;;;;;2.37;0.80;;;;;;;18.13;55.17;99996.00;4972948;28;20674;-71
2021/11/21 08:38:24;;;;;;;5.87;1.00;;;;;;;19.02;54.18;100025.91;4955554;28;20217;-69
2021/11/21 08:40:50;;;;;;;9.23;1.10;;;;;;;18.80;54.15;100020.94;4972100;28;20572;-70
2021/11/21 08:43:15;;;;;;;6.73;1.50;;;;;;;18.86;54.14;100012.22;4973569;28;20666;-69
2021/11/21 08:45:41;;;;;;;4.93;1.17;;;;;;;18.54;54.64;100021.63;4973674;28;20214;-71
2021/11/21 08:48:06;;;;;;;2.97;1.30;;;;;;;18.66;54.49;100001.56;4972762;28;20182;-68
2021/11/21 08:50:32;;;;;;;6.97;1.10;;;;;;;19.33;53.53;100023.66;4971483;28;20638;-69
2021/11/21 08:52:58;;;;;;;6.80;1.27;;;;;;;19.39;53.66;100017.59;4971603;28;20636;-70
2021/11/21 08:55:23;;;;;;;2.83;1.10;;;;;;;19.26;53.72;100023.41;4971552;28;20178;-69
2021/11/21 08:57:48;;;;;;;10.13;1.87;;;;;;;19.02;54.79;100018.66;4972652;28;20182;-69
2021/11/21 09:00:15;;;;;;;8.13;1.43;;;;;;;18.67;55.35;100018.63;4973051;28;20209;-70
2021/11/21 09:02:41;;;;;;;8.43;1.20;;;;;;;19.08;54.58;100024.44;4971778;28;20185;-69
2021/11/21 09:05:07;;;;;;;6.40;1.27;;;;;;;19.17;54.46;100029.75;4971737;28;20181;-69
2021/11/21 09:07:37;;;;;;;5.93;1.50;;;;;;;19.65;54.03;100029.31;4955184;28;20206;-70
2021/11/21 09:10:08;;;;;;;9.17;1.40;;;;;;;19.40;54.11;100027.41;4955323;28;20289;-70
2021/11/21 09:12:34;;;;;;;9.20;1.40;;;;;;;19.84;53.20;100013.88;4971930;28;20174;-69
2021/11/21 09:14:59;;;;;;;7.43;1.40;;;;;;;19.18;54.23;100030.59;4971168;28;20181;-69
2021/11/21 09:17:24;;;;;;;6.17;1.50;;;;;;;19.33;53.96;100018.25;4972526;28;20223;-70
2021/11/21 09:19:50;;;;;;;5.27;1.30;;;;;;;18.95;54.86;100025.66;4971371;28;20179;-70
2021/11/21 09:22:15;;;;;;;5.57;1.73;;;;;;;19.18;54.82;100030.59;4971571;28;20178;-69
2021/11/21 09:24:41;;;;;;;7.47;2.17;;;;;;;19.38;54.32;100034.84;4971065;28;20194;-69
2021/11/21 09:27:07;;;;;;;6.40;1.97;;;;;;;20.43;52.07;100028.41;4973047;28;20237;-69
2021/11/21 09:29:33;;;;;;;5.23;1.37;;;;;;;20.17;52.35;100031.16;4972237;28;20182;-70
2021/11/21 09:31:58;;;;;;;6.70;1.70;;;;;;;19.59;53.84;100046.19;4970982;28;20197;-70
2021/11/21 09:34:24;;;;;;;6.20;1.80;;;;;;;19.24;54.15;100040.78;4972619;28;20244;-69
2021/11/21 09:36:50;;;;;;;8.77;1.53;;;;;;;19.11;54.21;100035.78;4971321;28;20181;-69
2021/11/21 09:39:15;;;;;;;9.67;1.63;;;;;;;18.79;54.41;100036.31;4972153;28;20664;-70
2021/11/21 09:41:41;;;;;;;5.93;1.60;;;;;;;19.22;53.56;100031.97;4972187;28;20194;-68
2021/11/21 09:44:06;;;;;;;5.37;1.47;;;;;;;18.98;53.88;100035.34;4972062;28;20185;-69
2021/11/21 09:46:32;;;;;;;5.23;1.57;;;;;;;19.46;53.34;100039.47;4972105;28;20194;-69
2021/11/21 09:48:57;;;;;;;7.97;1.83;;;;;;;18.72;54.27;100035.22;4971878;28;20647;-68
2021/11/21 09:51:23;;;;;;;11.03;1.70;;;;;;;18.42;54.96;100033.66;4972579;28;20195;-70
2021/11/21 09:53:48;;;;;;;8.97;1.40;;;;;;;18.55;55.28;100036.00;4971286;28;20636;-69
2021/11/21 09:56:16;;;;;;;6.53;1.77;;;;;;;18.51;54.79;100045.41;4972620;28;20174;-70
2021/11/21 09:58:44;;;;;;;4.43;1.17;;;;;;;19.50;52.79;100040.84;4971707;28;20240;-69
2021/11/21 10:01:32;;;;;;;7.63;1.77;;;;;;;18.43;54.20;100032.66;4971180;28;20679;-69
2021/11/21 10:03:59;;;;;;;9.03;1.47;;;;;;;18.72;53.84;100036.06;4972174;28;20162;-71
2021/11/21 10:06:35;;;;;;;6.43;1.70;;;;;;;18.62;53.91;100031.75;4972494;28;20355;-70
2021/11/21 10:09:05;;;;;;;7.83;1.50;;;;;;;19.18;52.22;100030.59;4971958;28;20525;-68
2021/11/21 10:11:30;;;;;;;5.83;1.77;;;;;;;19.24;52.02;100029.97;4970900;28;20202;-69
2021/11/21 10:14:05;;;;;;;10.27;2.03;;;;;;;19.65;51.56;100029.31;4971573;28;20175;-69
2021/11/21 10:16:36;;;;;;;5.33;1.67;;;;;;;20.39;50.60;100024.28;4972868;28;20162;-69
2021/11/21 10:19:05;;;;;;;5.97;1.30;;;;;;;19.33;51.96;100034.47;4956077;28;20616;-70
2021/11/21 10:21:39;;;;;;;6.43;1.43;;;;;;;19.54;52.07;100032.28;4972268;28;20284;-71
2021/11/21 10:24:13;;;;;;;7.53;1.63;;;;;;;19.84;51.53;100038.25;4974024;28;20241;-69
2021/11/21 10:26:41;;;;;;;8.07;1.47;;;;;;;19.47;52.11;100033.91;4975872;28;20197;-70
2021/11/21 10:29:23;;;;;;;7.63;1.87;;;;;;;19.29;52.52;100027.66;4975429;28;20174;-70
2021/11/21 10:31:48;;;;;;;8.73;1.50;;;;;;;19.41;52.12;100030.97;4975780;28;20255;-70
2021/11/21 10:34:14;;;;;;;7.37;1.90;;;;;;;18.90;53.30;100033.38;4974128;28;20178;-70
2021/11/21 10:36:39;;;;;;;7.73;1.37;;;;;;;19.40;52.13;100042.81;4974230;28;20236;-70
2021/11/21 10:39:07;;;;;;;11.07;1.83;;;;;;;20.24;50.66;100041.19;4975926;28;20196;-69
2021/11/21 10:41:34;;;;;;;7.90;1.90;;;;;;;19.55;51.30;100039.41;4975372;28;20202;-70
2021/11/21 10:44:17;;;;;;;7.57;1.63;;;;;;;20.04;51.22;100033.44;4975155;28;20204;-69
2021/11/21 10:46:43;;;;;;;9.53;1.40;;;;;;;20.08;51.23;100041.09;4974767;28;20208;-69
2021/11/21 10:49:15;;;;;;;7.80;1.40;;;;;;;20.43;50.50;100029.25;4973303;28;20547;-70
2021/11/21 10:51:40;;;;;;;11.27;2.03;;;;;;;20.09;50.63;100037.38;4973424;28;20260;-69
2021/11/21 10:54:24;;;;;;;7.90;1.70;;;;;;;20.86;49.74;100035.50;4975049;28;20643;-70
2021/11/21 10:56:54;;;;;;;5.40;1.50;;;;;;;20.26;50.52;100033.72;4973571;28;20242;-70
2021/11/21 10:59:52;;;;;;;6.03;1.57;;;;;;;20.07;50.38;100042.13;4974519;28;20196;-69
2021/11/21 11:02:31;;;;;;;6.33;1.40;;;;;;;20.64;49.87;100044.25;4974953;28;20182;-70
2021/11/21 11:05:14;;;;;;;15.37;1.83;;;;;;;20.82;49.49;100045.84;4975691;28;20162;-70
2021/11/21 11:07:50;;;;;;;9.20;2.03;;;;;;;19.70;50.68;100036.97;4973996;28;20280;-70
2021/11/21 11:10:27;;;;;;;7.60;2.00;;;;;;;20.13;50.30;100041.47;4975061;28;20202;-70
2021/11/21 11:13:03;;;;;;;14.17;2.23;;;;;;;19.19;51.89;100053.94;4973983;28;20158;-70
2021/11/21 11:15:29;;;;;;;10.20;2.30;;;;;;;18.38;52.80;100035.81;4975835;28;20194;-69
2021/11/21 11:17:55;;;;;;;10.60;1.40;;;;;;;18.82;52.10;100046.81;4975191;28;20251;-70
2021/11/21 11:20:21;;;;;;;7.33;1.60;;;;;;;18.59;52.70;100040.97;4974510;28;20260;-71
2021/11/21 11:22:47;;;;;;;11.20;2.20;;;;;;;19.39;50.94;100044.66;4975105;28;20174;-70